sensor_id;sensor_type;location;lat;lon;timestamp;P1;durP1;ratioP1;P2;durP2;ratioP2
26271;SDS011;13997;48.902;12.472;2022-11-23T00:01:18;47.35;;;23.23;;
26271;SDS011;13997;48.902;12.472;2022-11-23T00:03:46;47.22;;;22.63;;
26271;SDS011;13997;48.902;12.472;2022-11-23T00:06:13;42.83;;;21.27;;
26271;SDS011;13997;48.902;12.472;2022-11-23T00:08:40;40.60;;;21.55;;
26271;SDS011;13997;48.902;12.472;2022-11-23T00:11:06;43.50;;;21.10;;
26271;SDS011;13997;48.902;12.472;2022-11-23T00:13:32;44.45;;;22.33;;
26271;SDS011;13997;48.902;12.472;2022-11-23T00:16:06;40.80;;;20.75;;
26271;SDS011;13997;48.902;12.472;2022-11-23T00:18:37;40.78;;;20.67;;
26271;SDS011;13997;48.902;12.472;2022-11-23T00:21:07;48.92;;;22.08;;
26271;SDS011;13997;48.902;12.472;2022-11-23T00:23:38;44.85;;;22.75;;
26271;SDS011;13997;48.902;12.472;2022-11-23T00:26:04;48.88;;;22.75;;
26271;SDS011;13997;48.902;12.472;2022-11-23T00:28:30;47.28;;;22.73;;
26271;SDS011;13997;48.902;12.472;2022-11-23T00:30:56;45.92;;;21.60;;
26271;SDS011;13997;48.902;12.472;2022-11-23T00:33:21;46.90;;;22.63;;
26271;SDS011;13997;48.902;12.472;2022-11-23T00:35:47;50.63;;;24.02;;
26271;SDS011;13997;48.902;12.472;2022-11-23T00:38:22;49.28;;;23.13;;
26271;SDS011;13997;48.902;12.472;2022-11-23T00:40:47;50.55;;;23.90;;
26271;SDS011;13997;48.902;12.472;2022-11-23T00:43:13;50.90;;;23.27;;
26271;SDS011;13997;48.902;12.472;2022-11-23T00:45:38;54.38;;;23.85;;
26271;SDS011;13997;48.902;12.472;2022-11-23T00:48:04;48.78;;;22.63;;
26271;SDS011;13997;48.902;12.472;2022-11-23T00:50:30;49.08;;;22.52;;
26271;SDS011;13997;48.902;12.472;2022-11-23T00:52:56;53.55;;;23.67;;
26271;SDS011;13997;48.902;12.472;2022-11-23T00:55:22;48.83;;;24.13;;
26271;SDS011;13997;48.902;12.472;2022-11-23T00:57:47;52.10;;;23.83;;
26271;SDS011;13997;48.902;12.472;2022-11-23T01:00:13;53.05;;;24.83;;
26271;SDS011;13997;48.902;12.472;2022-11-23T01:02:41;47.17;;;23.23;;
26271;SDS011;13997;48.902;12.472;2022-11-23T01:05:07;50.35;;;24.00;;
26271;SDS011;13997;48.902;12.472;2022-11-23T01:07:33;47.55;;;23.65;;
26271;SDS011;13997;48.902;12.472;2022-11-23T01:09:59;52.03;;;22.67;;
26271;SDS011;13997;48.902;12.472;2022-11-23T01:12:24;43.63;;;22.75;;
26271;SDS011;13997;48.902;12.472;2022-11-23T01:14:53;52.20;;;23.00;;
26271;SDS011;13997;48.902;12.472;2022-11-23T01:17:18;45.45;;;22.38;;
26271;SDS011;13997;48.902;12.472;2022-11-23T01:19:44;53.25;;;23.02;;
26271;SDS011;13997;48.902;12.472;2022-11-23T01:22:10;47.30;;;23.15;;
26271;SDS011;13997;48.902;12.472;2022-11-23T01:24:35;52.08;;;23.15;;
26271;SDS011;13997;48.902;12.472;2022-11-23T01:27:01;50.17;;;23.20;;
26271;SDS011;13997;48.902;12.472;2022-11-23T01:29:26;48.53;;;23.92;;
26271;SDS011;13997;48.902;12.472;2022-11-23T01:31:52;48.92;;;22.48;;
26271;SDS011;13997;48.902;12.472;2022-11-23T01:34:17;39.15;;;21.15;;
26271;SDS011;13997;48.902;12.472;2022-11-23T01:36:43;59.75;;;23.25;;
26271;SDS011;13997;48.902;12.472;2022-11-23T01:39:09;54.70;;;22.48;;
26271;SDS011;13997;48.902;12.472;2022-11-23T01:41:37;57.30;;;21.02;;
26271;SDS011;13997;48.902;12.472;2022-11-23T01:46:55;56.17;;;20.55;;
26271;SDS011;13997;48.902;12.472;2022-11-23T01:49:30;58.70;;;20.90;;
26271;SDS011;13997;48.902;12.472;2022-11-23T01:52:01;63.47;;;20.77;;
26271;SDS011;13997;48.902;12.472;2022-11-23T01:54:31;52.72;;;21.58;;
26271;SDS011;13997;48.902;12.472;2022-11-23T01:57:04;76.38;;;21.02;;
26271;SDS011;13997;48.902;12.472;2022-11-23T01:59:33;62.10;;;19.67;;
26271;SDS011;13997;48.902;12.472;2022-11-23T02:02:01;59.97;;;21.00;;
26271;SDS011;13997;48.902;12.472;2022-11-23T02:04:31;56.67;;;21.40;;
26271;SDS011;13997;48.902;12.472;2022-11-23T02:07:01;67.60;;;21.20;;
26271;SDS011;13997;48.902;12.472;2022-11-23T02:09:30;93.85;;;21.15;;
26271;SDS011;13997;48.902;12.472;2022-11-23T02:11:57;69.22;;;20.17;;
26271;SDS011;13997;48.902;12.472;2022-11-23T02:14:23;57.33;;;20.77;;
26271;SDS011;13997;48.902;12.472;2022-11-23T02:16:50;47.78;;;20.88;;
26271;SDS011;13997;48.902;12.472;2022-11-23T02:22:25;88.20;;;22.15;;
26271;SDS011;13997;48.902;12.472;2022-11-23T02:24:57;60.58;;;20.63;;
26271;SDS011;13997;48.902;12.472;2022-11-23T02:27:26;53.55;;;20.05;;
26271;SDS011;13997;48.902;12.472;2022-11-23T02:29:52;63.17;;;20.48;;
26271;SDS011;13997;48.902;12.472;2022-11-23T02:32:20;63.13;;;20.95;;
26271;SDS011;13997;48.902;12.472;2022-11-23T02:34:48;38.03;;;20.70;;
26271;SDS011;13997;48.902;12.472;2022-11-23T02:37:14;35.55;;;20.10;;
26271;SDS011;13997;48.902;12.472;2022-11-23T02:39:41;33.20;;;19.20;;
26271;SDS011;13997;48.902;12.472;2022-11-23T02:42:12;42.05;;;21.17;;
26271;SDS011;13997;48.902;12.472;2022-11-23T02:47:28;56.30;;;19.50;;
26271;SDS011;13997;48.902;12.472;2022-11-23T02:49:53;42.50;;;19.30;;
26271;SDS011;13997;48.902;12.472;2022-11-23T02:52:19;37.58;;;20.55;;
26271;SDS011;13997;48.902;12.472;2022-11-23T02:54:45;51.60;;;20.50;;
26271;SDS011;13997;48.902;12.472;2022-11-23T02:57:11;56.50;;;20.95;;
26271;SDS011;13997;48.902;12.472;2022-11-23T02:59:36;56.08;;;20.23;;
26271;SDS011;13997;48.902;12.472;2022-11-23T03:02:03;70.93;;;20.55;;
26271;SDS011;13997;48.902;12.472;2022-11-23T03:04:29;69.43;;;21.77;;
26271;SDS011;13997;48.902;12.472;2022-11-23T03:06:55;56.03;;;21.83;;
26271;SDS011;13997;48.902;12.472;2022-11-23T03:09:21;52.63;;;21.17;;
26271;SDS011;13997;48.902;12.472;2022-11-23T03:11:47;44.72;;;21.02;;
26271;SDS011;13997;48.902;12.472;2022-11-23T03:14:13;47.50;;;20.30;;
26271;SDS011;13997;48.902;12.472;2022-11-23T03:16:39;58.95;;;21.05;;
26271;SDS011;13997;48.902;12.472;2022-11-23T03:19:04;35.33;;;20.15;;
26271;SDS011;13997;48.902;12.472;2022-11-23T03:21:30;37.22;;;20.77;;
26271;SDS011;13997;48.902;12.472;2022-11-23T03:23:56;41.35;;;21.58;;
26271;SDS011;13997;48.902;12.472;2022-11-23T03:26:22;53.75;;;20.52;;
26271;SDS011;13997;48.902;12.472;2022-11-23T03:28:48;70.32;;;20.98;;
26271;SDS011;13997;48.902;12.472;2022-11-23T03:31:13;47.47;;;19.45;;
26271;SDS011;13997;48.902;12.472;2022-11-23T03:33:39;57.58;;;20.60;;
26271;SDS011;13997;48.902;12.472;2022-11-23T03:36:04;39.30;;;21.45;;
26271;SDS011;13997;48.902;12.472;2022-11-23T03:38:30;43.97;;;20.38;;
26271;SDS011;13997;48.902;12.472;2022-11-23T03:40:56;43.88;;;21.80;;
26271;SDS011;13997;48.902;12.472;2022-11-23T03:43:22;40.10;;;21.17;;
26271;SDS011;13997;48.902;12.472;2022-11-23T03:45:47;40.95;;;21.67;;
26271;SDS011;13997;48.902;12.472;2022-11-23T03:48:13;34.80;;;19.95;;
26271;SDS011;13997;48.902;12.472;2022-11-23T03:50:39;45.05;;;21.25;;
26271;SDS011;13997;48.902;12.472;2022-11-23T03:53:05;56.33;;;19.67;;
26271;SDS011;13997;48.902;12.472;2022-11-23T03:55:31;61.00;;;20.13;;
26271;SDS011;13997;48.902;12.472;2022-11-23T03:57:57;42.60;;;20.45;;
26271;SDS011;13997;48.902;12.472;2022-11-23T04:00:24;49.67;;;19.90;;
26271;SDS011;13997;48.902;12.472;2022-11-23T04:02:53;55.65;;;19.85;;
26271;SDS011;13997;48.902;12.472;2022-11-23T04:05:19;75.10;;;24.35;;
26271;SDS011;13997;48.902;12.472;2022-11-23T04:07:48;58.63;;;21.00;;
26271;SDS011;13997;48.902;12.472;2022-11-23T04:10:14;64.55;;;23.05;;
26271;SDS011;13997;48.902;12.472;2022-11-23T04:12:40;48.33;;;22.80;;
26271;SDS011;13997;48.902;12.472;2022-11-23T04:15:06;51.35;;;23.50;;
26271;SDS011;13997;48.902;12.472;2022-11-23T04:17:32;58.78;;;23.90;;
26271;SDS011;13997;48.902;12.472;2022-11-23T04:19:58;66.72;;;24.33;;
26271;SDS011;13997;48.902;12.472;2022-11-23T04:22:23;56.78;;;23.65;;
26271;SDS011;13997;48.902;12.472;2022-11-23T04:24:49;64.43;;;25.90;;
26271;SDS011;13997;48.902;12.472;2022-11-23T04:27:15;55.20;;;23.83;;
26271;SDS011;13997;48.902;12.472;2022-11-23T04:29:40;61.10;;;25.02;;
26271;SDS011;13997;48.902;12.472;2022-11-23T04:32:06;62.60;;;25.13;;
26271;SDS011;13997;48.902;12.472;2022-11-23T04:34:31;80.65;;;25.48;;
26271;SDS011;13997;48.902;12.472;2022-11-23T04:36:57;49.78;;;25.10;;
26271;SDS011;13997;48.902;12.472;2022-11-23T04:39:23;82.90;;;25.67;;
26271;SDS011;13997;48.902;12.472;2022-11-23T04:41:49;79.47;;;24.25;;
26271;SDS011;13997;48.902;12.472;2022-11-23T04:44:14;54.78;;;23.73;;
26271;SDS011;13997;48.902;12.472;2022-11-23T04:46:40;50.75;;;24.70;;
26271;SDS011;13997;48.902;12.472;2022-11-23T04:49:07;63.13;;;25.20;;
26271;SDS011;13997;48.902;12.472;2022-11-23T04:51:33;98.10;;;28.58;;
26271;SDS011;13997;48.902;12.472;2022-11-23T04:53:59;67.32;;;26.27;;
26271;SDS011;13997;48.902;12.472;2022-11-23T04:56:24;66.65;;;25.42;;
26271;SDS011;13997;48.902;12.472;2022-11-23T04:58:50;54.08;;;25.70;;
26271;SDS011;13997;48.902;12.472;2022-11-23T05:01:15;55.22;;;24.83;;
26271;SDS011;13997;48.902;12.472;2022-11-23T05:03:41;49.08;;;24.00;;
26271;SDS011;13997;48.902;12.472;2022-11-23T05:06:08;55.92;;;24.70;;
26271;SDS011;13997;48.902;12.472;2022-11-23T05:08:34;50.35;;;23.20;;
26271;SDS011;13997;48.902;12.472;2022-11-23T05:11:00;46.08;;;23.45;;
26271;SDS011;13997;48.902;12.472;2022-11-23T05:13:26;47.03;;;23.50;;
26271;SDS011;13997;48.902;12.472;2022-11-23T05:15:52;46.05;;;22.77;;
26271;SDS011;13997;48.902;12.472;2022-11-23T05:18:17;49.20;;;23.50;;
26271;SDS011;13997;48.902;12.472;2022-11-23T05:20:43;52.45;;;24.00;;
26271;SDS011;13997;48.902;12.472;2022-11-23T05:23:10;49.83;;;23.40;;
26271;SDS011;13997;48.902;12.472;2022-11-23T05:25:36;47.92;;;23.30;;
26271;SDS011;13997;48.902;12.472;2022-11-23T05:28:02;51.33;;;24.40;;
26271;SDS011;13997;48.902;12.472;2022-11-23T05:30:28;51.97;;;24.48;;
26271;SDS011;13997;48.902;12.472;2022-11-23T05:32:53;50.25;;;24.17;;
26271;SDS011;13997;48.902;12.472;2022-11-23T05:37:50;51.30;;;24.10;;
26271;SDS011;13997;48.902;12.472;2022-11-23T05:40:16;56.10;;;26.35;;
26271;SDS011;13997;48.902;12.472;2022-11-23T05:42:42;52.30;;;25.67;;
26271;SDS011;13997;48.902;12.472;2022-11-23T05:45:07;54.35;;;25.83;;
26271;SDS011;13997;48.902;12.472;2022-11-23T05:47:33;70.68;;;27.17;;
26271;SDS011;13997;48.902;12.472;2022-11-23T05:49:59;64.95;;;26.65;;
26271;SDS011;13997;48.902;12.472;2022-11-23T05:52:25;56.00;;;25.90;;
26271;SDS011;13997;48.902;12.472;2022-11-23T05:54:50;52.95;;;25.70;;
26271;SDS011;13997;48.902;12.472;2022-11-23T05:57:16;57.90;;;26.52;;
26271;SDS011;13997;48.902;12.472;2022-11-23T05:59:42;56.08;;;26.83;;
26271;SDS011;13997;48.902;12.472;2022-11-23T06:02:07;51.78;;;25.02;;
26271;SDS011;13997;48.902;12.472;2022-11-23T06:04:33;45.30;;;23.88;;
26271;SDS011;13997;48.902;12.472;2022-11-23T06:06:59;43.22;;;23.60;;
26271;SDS011;13997;48.902;12.472;2022-11-23T06:09:25;48.53;;;24.75;;
26271;SDS011;13997;48.902;12.472;2022-11-23T06:11:51;47.33;;;24.35;;
26271;SDS011;13997;48.902;12.472;2022-11-23T06:14:17;53.80;;;25.67;;
26271;SDS011;13997;48.902;12.472;2022-11-23T06:16:43;46.17;;;23.42;;
26271;SDS011;13997;48.902;12.472;2022-11-23T06:19:09;42.10;;;23.90;;
26271;SDS011;13997;48.902;12.472;2022-11-23T06:21:34;48.33;;;24.38;;
26271;SDS011;13997;48.902;12.472;2022-11-23T06:24:00;44.85;;;24.42;;
26271;SDS011;13997;48.902;12.472;2022-11-23T06:26:25;43.30;;;23.65;;
26271;SDS011;13997;48.902;12.472;2022-11-23T06:28:51;45.40;;;23.23;;
26271;SDS011;13997;48.902;12.472;2022-11-23T06:31:17;51.20;;;22.88;;
26271;SDS011;13997;48.902;12.472;2022-11-23T06:47:39;39.63;;;21.17;;
26271;SDS011;13997;48.902;12.472;2022-11-23T06:50:05;39.22;;;21.20;;
26271;SDS011;13997;48.902;12.472;2022-11-23T06:52:31;39.53;;;20.73;;
26271;SDS011;13997;48.902;12.472;2022-11-23T06:54:56;42.53;;;21.23;;
26271;SDS011;13997;48.902;12.472;2022-11-23T06:57:22;39.90;;;21.38;;
26271;SDS011;13997;48.902;12.472;2022-11-23T06:59:48;41.13;;;20.83;;
26271;SDS011;13997;48.902;12.472;2022-11-23T07:02:13;40.35;;;21.40;;
26271;SDS011;13997;48.902;12.472;2022-11-23T07:04:39;40.03;;;21.73;;
26271;SDS011;13997;48.902;12.472;2022-11-23T07:07:07;41.28;;;22.40;;
26271;SDS011;13997;48.902;12.472;2022-11-23T07:09:33;38.28;;;21.70;;
26271;SDS011;13997;48.902;12.472;2022-11-23T07:11:59;40.45;;;21.75;;
26271;SDS011;13997;48.902;12.472;2022-11-23T07:14:25;45.25;;;24.35;;
26271;SDS011;13997;48.902;12.472;2022-11-23T07:16:50;45.20;;;24.60;;
26271;SDS011;13997;48.902;12.472;2022-11-23T07:19:16;52.10;;;25.38;;
26271;SDS011;13997;48.902;12.472;2022-11-23T07:21:41;47.70;;;24.83;;
26271;SDS011;13997;48.902;12.472;2022-11-23T07:24:08;47.83;;;25.30;;
26271;SDS011;13997;48.902;12.472;2022-11-23T07:26:34;59.63;;;28.25;;
26271;SDS011;13997;48.902;12.472;2022-11-23T07:28:59;52.88;;;27.55;;
26271;SDS011;13997;48.902;12.472;2022-11-23T07:31:25;52.03;;;28.42;;
26271;SDS011;13997;48.902;12.472;2022-11-23T07:33:50;54.25;;;27.88;;
26271;SDS011;13997;48.902;12.472;2022-11-23T07:36:17;52.17;;;27.40;;
26271;SDS011;13997;48.902;12.472;2022-11-23T07:38:43;54.30;;;28.33;;
26271;SDS011;13997;48.902;12.472;2022-11-23T07:41:08;55.97;;;30.25;;
26271;SDS011;13997;48.902;12.472;2022-11-23T07:43:34;55.58;;;28.90;;
26271;SDS011;13997;48.902;12.472;2022-11-23T07:46:00;54.50;;;29.23;;
26271;SDS011;13997;48.902;12.472;2022-11-23T07:48:25;63.78;;;33.65;;
26271;SDS011;13997;48.902;12.472;2022-11-23T07:50:51;66.22;;;37.65;;
26271;SDS011;13997;48.902;12.472;2022-11-23T07:53:18;49.15;;;27.77;;
26271;SDS011;13997;48.902;12.472;2022-11-23T07:55:44;44.78;;;25.92;;
26271;SDS011;13997;48.902;12.472;2022-11-23T07:58:11;71.00;;;38.60;;
26271;SDS011;13997;48.902;12.472;2022-11-23T08:00:37;78.78;;;44.22;;
26271;SDS011;13997;48.902;12.472;2022-11-23T08:03:02;63.15;;;36.15;;
26271;SDS011;13997;48.902;12.472;2022-11-23T08:05:32;54.10;;;30.58;;
26271;SDS011;13997;48.902;12.472;2022-11-23T08:07:59;52.70;;;28.30;;
26271;SDS011;13997;48.902;12.472;2022-11-23T08:10:26;51.55;;;29.50;;
26271;SDS011;13997;48.902;12.472;2022-11-23T08:12:55;74.47;;;43.75;;
26271;SDS011;13997;48.902;12.472;2022-11-23T08:15:22;60.03;;;34.08;;
26271;SDS011;13997;48.902;12.472;2022-11-23T08:17:48;67.38;;;38.78;;
26271;SDS011;13997;48.902;12.472;2022-11-23T08:20:17;60.13;;;33.60;;
26271;SDS011;13997;48.902;12.472;2022-11-23T08:22:43;55.13;;;32.72;;
26271;SDS011;13997;48.902;12.472;2022-11-23T08:25:09;53.28;;;29.42;;
26271;SDS011;13997;48.902;12.472;2022-11-23T08:27:36;48.25;;;28.02;;
26271;SDS011;13997;48.902;12.472;2022-11-23T08:30:02;65.85;;;36.92;;
26271;SDS011;13997;48.902;12.472;2022-11-23T08:32:28;61.95;;;35.90;;
26271;SDS011;13997;48.902;12.472;2022-11-23T08:34:54;59.58;;;32.58;;
26271;SDS011;13997;48.902;12.472;2022-11-23T08:37:20;53.47;;;31.02;;
26271;SDS011;13997;48.902;12.472;2022-11-23T08:39:45;49.65;;;29.80;;
26271;SDS011;13997;48.902;12.472;2022-11-23T08:42:11;61.78;;;35.15;;
26271;SDS011;13997;48.902;12.472;2022-11-23T08:44:36;50.45;;;30.30;;
26271;SDS011;13997;48.902;12.472;2022-11-23T08:47:02;53.00;;;31.35;;
26271;SDS011;13997;48.902;12.472;2022-11-23T08:49:28;50.35;;;30.30;;
26271;SDS011;13997;48.902;12.472;2022-11-23T08:51:53;56.25;;;34.78;;
26271;SDS011;13997;48.902;12.472;2022-11-23T08:54:19;57.15;;;32.85;;
26271;SDS011;13997;48.902;12.472;2022-11-23T08:56:47;45.78;;;29.80;;
26271;SDS011;13997;48.902;12.472;2022-11-23T08:59:13;49.67;;;30.60;;
26271;SDS011;13997;48.902;12.472;2022-11-23T09:01:38;47.85;;;28.35;;
26271;SDS011;13997;48.902;12.472;2022-11-23T09:04:04;54.10;;;32.45;;
26271;SDS011;13997;48.902;12.472;2022-11-23T09:06:33;153.68;;;55.45;;
26271;SDS011;13997;48.902;12.472;2022-11-23T09:08:59;64.72;;;36.65;;
26271;SDS011;13997;48.902;12.472;2022-11-23T09:11:24;65.00;;;38.47;;
26271;SDS011;13997;48.902;12.472;2022-11-23T09:13:50;48.03;;;28.63;;
26271;SDS011;13997;48.902;12.472;2022-11-23T09:16:16;48.72;;;25.27;;
26271;SDS011;13997;48.902;12.472;2022-11-23T09:18:42;42.20;;;26.02;;
26271;SDS011;13997;48.902;12.472;2022-11-23T09:21:08;38.85;;;24.05;;
26271;SDS011;13997;48.902;12.472;2022-11-23T09:23:34;39.65;;;22.80;;
26271;SDS011;13997;48.902;12.472;2022-11-23T09:26:00;44.97;;;24.25;;
26271;SDS011;13997;48.902;12.472;2022-11-23T09:28:27;37.88;;;24.95;;
26271;SDS011;13997;48.902;12.472;2022-11-23T09:30:54;36.67;;;22.83;;
26271;SDS011;13997;48.902;12.472;2022-11-23T09:33:21;39.92;;;23.42;;
26271;SDS011;13997;48.902;12.472;2022-11-23T09:38:24;38.90;;;24.15;;
26271;SDS011;13997;48.902;12.472;2022-11-23T09:40:52;35.17;;;23.73;;
26271;SDS011;13997;48.902;12.472;2022-11-23T09:47:09;40.10;;;24.10;;
26271;SDS011;13997;48.902;12.472;2022-11-23T09:52:31;38.35;;;24.33;;
26271;SDS011;13997;48.902;12.472;2022-11-23T09:55:03;35.88;;;23.17;;
26271;SDS011;13997;48.902;12.472;2022-11-23T09:57:35;36.92;;;23.15;;
26271;SDS011;13997;48.902;12.472;2022-11-23T10:00:05;33.50;;;23.58;;
26271;SDS011;13997;48.902;12.472;2022-11-23T10:02:39;38.38;;;23.17;;
26271;SDS011;13997;48.902;12.472;2022-11-23T10:05:05;39.70;;;25.00;;
26271;SDS011;13997;48.902;12.472;2022-11-23T10:07:49;37.50;;;23.50;;
26271;SDS011;13997;48.902;12.472;2022-11-23T10:13:16;40.47;;;26.05;;
26271;SDS011;13997;48.902;12.472;2022-11-23T10:23:45;43.58;;;26.13;;
26271;SDS011;13997;48.902;12.472;2022-11-23T10:26:17;35.67;;;24.60;;
26271;SDS011;13997;48.902;12.472;2022-11-23T10:28:45;40.28;;;23.25;;
26271;SDS011;13997;48.902;12.472;2022-11-23T10:31:15;35.85;;;22.70;;
26271;SDS011;13997;48.902;12.472;2022-11-23T10:33:52;37.63;;;24.83;;
26271;SDS011;13997;48.902;12.472;2022-11-23T10:36:39;42.05;;;24.08;;
26271;SDS011;13997;48.902;12.472;2022-11-23T10:39:16;37.70;;;24.63;;
26271;SDS011;13997;48.902;12.472;2022-11-23T10:41:48;36.75;;;24.08;;
26271;SDS011;13997;48.902;12.472;2022-11-23T10:47:07;42.97;;;25.50;;
26271;SDS011;13997;48.902;12.472;2022-11-23T10:49:33;42.53;;;25.15;;
26271;SDS011;13997;48.902;12.472;2022-11-23T10:52:03;35.95;;;23.80;;
26271;SDS011;13997;48.902;12.472;2022-11-23T10:54:59;40.13;;;25.75;;
26271;SDS011;13997;48.902;12.472;2022-11-23T10:57:31;37.20;;;24.20;;
26271;SDS011;13997;48.902;12.472;2022-11-23T11:02:40;40.58;;;25.55;;
26271;SDS011;13997;48.902;12.472;2022-11-23T11:08:01;41.15;;;25.80;;
26271;SDS011;13997;48.902;12.472;2022-11-23T11:10:48;41.38;;;25.40;;
26271;SDS011;13997;48.902;12.472;2022-11-23T11:15:55;45.13;;;25.80;;
26271;SDS011;13997;48.902;12.472;2022-11-23T11:18:23;40.78;;;25.83;;
26271;SDS011;13997;48.902;12.472;2022-11-23T11:21:01;47.45;;;25.45;;
26271;SDS011;13997;48.902;12.472;2022-11-23T11:23:50;42.50;;;26.08;;
26271;SDS011;13997;48.902;12.472;2022-11-23T11:26:19;45.55;;;25.58;;
26271;SDS011;13997;48.902;12.472;2022-11-23T11:28:49;44.93;;;26.87;;
26271;SDS011;13997;48.902;12.472;2022-11-23T11:31:37;41.63;;;25.67;;
26271;SDS011;13997;48.902;12.472;2022-11-23T11:39:36;35.55;;;23.52;;
26271;SDS011;13997;48.902;12.472;2022-11-23T11:42:07;42.22;;;24.92;;
26271;SDS011;13997;48.902;12.472;2022-11-23T11:44:39;42.58;;;25.30;;
26271;SDS011;13997;48.902;12.472;2022-11-23T11:47:18;44.80;;;26.33;;
26271;SDS011;13997;48.902;12.472;2022-11-23T11:49:52;44.17;;;26.30;;
26271;SDS011;13997;48.902;12.472;2022-11-23T11:52:20;43.50;;;25.25;;
26271;SDS011;13997;48.902;12.472;2022-11-23T11:55:01;41.35;;;26.08;;
26271;SDS011;13997;48.902;12.472;2022-11-23T11:57:35;43.45;;;26.27;;
26271;SDS011;13997;48.902;12.472;2022-11-23T12:00:23;48.38;;;27.90;;
26271;SDS011;13997;48.902;12.472;2022-11-23T12:05:25;49.85;;;28.40;;
26271;SDS011;13997;48.902;12.472;2022-11-23T12:08:15;45.10;;;28.42;;
26271;SDS011;13997;48.902;12.472;2022-11-23T12:11:03;45.05;;;26.95;;
26271;SDS011;13997;48.902;12.472;2022-11-23T12:13:35;44.55;;;26.83;;
26271;SDS011;13997;48.902;12.472;2022-11-23T12:21:45;48.13;;;27.02;;
26271;SDS011;13997;48.902;12.472;2022-11-23T12:30:12;45.88;;;26.15;;
26271;SDS011;13997;48.902;12.472;2022-11-23T12:33:02;39.05;;;25.45;;
26271;SDS011;13997;48.902;12.472;2022-11-23T12:41:20;44.25;;;25.60;;
26271;SDS011;13997;48.902;12.472;2022-11-23T12:46:50;40.78;;;25.95;;
26271;SDS011;13997;48.902;12.472;2022-11-23T13:18:25;36.33;;;23.20;;
26271;SDS011;13997;48.902;12.472;2022-11-23T13:24:03;43.40;;;24.33;;
26271;SDS011;13997;48.902;12.472;2022-11-23T13:26:29;43.15;;;25.08;;
26271;SDS011;13997;48.902;12.472;2022-11-23T13:28:57;39.17;;;24.02;;
26271;SDS011;13997;48.902;12.472;2022-11-23T13:31:28;36.65;;;24.08;;
26271;SDS011;13997;48.902;12.472;2022-11-23T13:33:56;36.05;;;23.40;;
26271;SDS011;13997;48.902;12.472;2022-11-23T13:38:56;42.38;;;25.02;;
26271;SDS011;13997;48.902;12.472;2022-11-23T13:44:16;41.85;;;23.70;;
26271;SDS011;13997;48.902;12.472;2022-11-23T13:47:02;37.60;;;23.63;;
26271;SDS011;13997;48.902;12.472;2022-11-23T13:54:55;35.97;;;22.27;;
26271;SDS011;13997;48.902;12.472;2022-11-23T13:57:29;41.03;;;23.63;;
26271;SDS011;13997;48.902;12.472;2022-11-23T14:06:01;36.92;;;22.17;;
26271;SDS011;13997;48.902;12.472;2022-11-23T14:08:28;38.17;;;22.98;;
26271;SDS011;13997;48.902;12.472;2022-11-23T14:10:56;38.90;;;23.52;;
26271;SDS011;13997;48.902;12.472;2022-11-23T14:13:24;42.42;;;23.05;;
26271;SDS011;13997;48.902;12.472;2022-11-23T14:15:57;36.28;;;23.42;;
26271;SDS011;13997;48.902;12.472;2022-11-23T14:32:43;45.50;;;27.83;;
26271;SDS011;13997;48.902;12.472;2022-11-23T14:40:13;45.00;;;28.27;;
26271;SDS011;13997;48.902;12.472;2022-11-23T14:43:00;45.72;;;27.17;;
26271;SDS011;13997;48.902;12.472;2022-11-23T14:45:28;46.47;;;26.50;;
26271;SDS011;13997;48.902;12.472;2022-11-23T14:48:18;49.20;;;27.02;;
26271;SDS011;13997;48.902;12.472;2022-11-23T14:50:52;49.08;;;27.02;;
26271;SDS011;13997;48.902;12.472;2022-11-23T14:53:27;48.60;;;27.83;;
26271;SDS011;13997;48.902;12.472;2022-11-23T14:55:57;49.65;;;28.30;;
26271;SDS011;13997;48.902;12.472;2022-11-23T14:58:23;51.22;;;29.48;;
26271;SDS011;13997;48.902;12.472;2022-11-23T15:00:50;59.42;;;32.67;;
26271;SDS011;13997;48.902;12.472;2022-11-23T15:03:18;54.47;;;32.83;;
26271;SDS011;13997;48.902;12.472;2022-11-23T15:05:46;60.15;;;34.83;;
26271;SDS011;13997;48.902;12.472;2022-11-23T15:13:48;64.47;;;35.28;;
26271;SDS011;13997;48.902;12.472;2022-11-23T15:16:16;61.83;;;36.22;;
26271;SDS011;13997;48.902;12.472;2022-11-23T15:18:44;63.22;;;35.83;;
26271;SDS011;13997;48.902;12.472;2022-11-23T15:23:39;65.05;;;36.10;;
26271;SDS011;13997;48.902;12.472;2022-11-23T15:26:13;58.60;;;34.78;;
26271;SDS011;13997;48.902;12.472;2022-11-23T15:28:40;59.15;;;32.78;;
26271;SDS011;13997;48.902;12.472;2022-11-23T15:34:10;61.22;;;34.13;;
26271;SDS011;13997;48.902;12.472;2022-11-23T15:36:39;62.63;;;34.38;;
26271;SDS011;13997;48.902;12.472;2022-11-23T15:39:06;61.83;;;33.10;;
26271;SDS011;13997;48.902;12.472;2022-11-23T15:41:38;62.60;;;33.58;;
26271;SDS011;13997;48.902;12.472;2022-11-23T15:44:14;65.28;;;34.15;;
26271;SDS011;13997;48.902;12.472;2022-11-23T15:46:43;62.28;;;36.05;;
26271;SDS011;13997;48.902;12.472;2022-11-23T15:49:12;72.78;;;34.75;;
26271;SDS011;13997;48.902;12.472;2022-11-23T15:51:40;63.70;;;34.95;;
26271;SDS011;13997;48.902;12.472;2022-11-23T15:54:17;66.57;;;33.67;;
26271;SDS011;13997;48.902;12.472;2022-11-23T15:56:46;63.47;;;32.85;;
26271;SDS011;13997;48.902;12.472;2022-11-23T16:01:52;58.83;;;31.40;;
26271;SDS011;13997;48.902;12.472;2022-11-23T16:04:39;63.45;;;32.58;;
26271;SDS011;13997;48.902;12.472;2022-11-23T16:09:41;60.60;;;33.92;;
26271;SDS011;13997;48.902;12.472;2022-11-23T16:14:49;55.88;;;31.88;;
26271;SDS011;13997;48.902;12.472;2022-11-23T16:17:25;69.38;;;34.20;;
26271;SDS011;13997;48.902;12.472;2022-11-23T16:19:52;65.40;;;35.05;;
26271;SDS011;13997;48.902;12.472;2022-11-23T16:24:57;68.97;;;33.90;;
26271;SDS011;13997;48.902;12.472;2022-11-23T16:27:43;71.07;;;34.15;;
26271;SDS011;13997;48.902;12.472;2022-11-23T16:30:25;74.30;;;39.05;;
26271;SDS011;13997;48.902;12.472;2022-11-23T16:32:52;78.72;;;38.58;;
26271;SDS011;13997;48.902;12.472;2022-11-23T16:35:18;75.82;;;38.35;;
26271;SDS011;13997;48.902;12.472;2022-11-23T16:37:44;66.10;;;34.60;;
26271;SDS011;13997;48.902;12.472;2022-11-23T16:40:11;74.82;;;38.88;;
26271;SDS011;13997;48.902;12.472;2022-11-23T16:42:38;70.57;;;36.92;;
26271;SDS011;13997;48.902;12.472;2022-11-23T16:45:04;83.70;;;38.75;;
26271;SDS011;13997;48.902;12.472;2022-11-23T16:48:18;75.88;;;38.00;;
26271;SDS011;13997;48.902;12.472;2022-11-23T16:50:29;70.65;;;36.08;;
26271;SDS011;13997;48.902;12.472;2022-11-23T16:53:01;70.82;;;34.88;;
26271;SDS011;13997;48.902;12.472;2022-11-23T16:55:37;87.65;;;41.67;;
26271;SDS011;13997;48.902;12.472;2022-11-23T16:58:03;137.32;;;59.45;;
26271;SDS011;13997;48.902;12.472;2022-11-23T17:00:29;127.38;;;57.38;;
26271;SDS011;13997;48.902;12.472;2022-11-23T17:02:56;133.10;;;64.60;;
26271;SDS011;13997;48.902;12.472;2022-11-23T17:05:22;185.48;;;85.50;;
26271;SDS011;13997;48.902;12.472;2022-11-23T17:07:50;105.85;;;49.78;;
26271;SDS011;13997;48.902;12.472;2022-11-23T17:10:16;77.63;;;36.25;;